ADDS METAR Data INFO
IDs: Format: Raw Decoded Include TAF

Data at: 1954 UTC 18 Feb 2018

KAIT 181935Z AUTO 07006KT 10SM BKN033 OVC039 M04/M11 A2963 RMK AO2
KAIT 181915Z AUTO 06006KT 10SM OVC031 M04/M11 A2963 RMK AO2
KAIT 181855Z AUTO 08004KT 10SM BKN029 OVC040 M05/M11 A2964 RMK AO2
KAIT 181835Z AUTO 06006KT 10SM BKN031 OVC040 M06/M12 A2965 RMK AO2
KAIT 181815Z AUTO 07007KT 10SM OVC033 M06/M12 A2966 RMK AO2
KAIT 181755Z AUTO 07007KT 10SM BKN035 M06/M13 A2969 RMK AO2
KAIT 181735Z AUTO 09006KT 10SM SCT035 M06/M13 A2969 RMK AO2
KAIT 181715Z AUTO 09006KT 10SM CLR M07/M13 A2969 RMK AO2
KAIT 181655Z AUTO 09007KT 10SM CLR M07/M14 A2971 RMK AO2
KAIT 181635Z AUTO 10007KT 10SM CLR M07/M14 A2973 RMK AO2
KAIT 181615Z AUTO 09007KT 10SM CLR M08/M14 A2974 RMK AO2
KAIT 181555Z AUTO 08006KT 10SM CLR M08/M14 A2976 RMK AO2
KAIT 181535Z AUTO 09009KT 10SM SCT032 M08/M14 A2976 RMK AO2
KAIT 181515Z AUTO 10011G16KT 10SM SCT032 M08/M15 A2978 RMK AO2
KAIT 181455Z AUTO 12009G18KT 10SM SCT005 SCT014 M09/M14 A2982 RMK AO2
KAIT 181435Z AUTO 11009KT 1SM -SN BKN005 OVC010 M09/M13 A2983 RMK AO2
KAIT 181415Z AUTO 11009KT 10SM SCT017 BKN029 OVC033 M09/M13 A2986 RMK AO2
KAIT 181355Z AUTO 13010KT 10SM SCT033 BKN065 M10/M13 A2988 RMK AO2
KAIT 181335Z AUTO 11008KT 10SM SCT049 M10/M12 A2986 RMK AO2
KAIT 181315Z AUTO 11008KT 10SM OVC047 M10/M12 A2987 RMK AO2
KAIT 181255Z AUTO 15006KT 3SM -SN SCT010 SCT013 OVC049 M10/M12 A2990 RMK AO2
KAIT 181235Z AUTO 13004KT 2 1/2SM -SN SCT010 BKN016 OVC021 M11/M12 A2989 RMK AO2
KAIT 181215Z AUTO 12004KT 2 1/2SM -SN OVC014 M11/M13 A2989 RMK AO2
KAIT 181155Z AUTO 12006KT 2SM -SN OVC012 M11/M13 A2990 RMK AO2
KAIT 181135Z AUTO 15007KT 2 1/2SM -SN OVC011 M11/M14 A2993 RMK AO2
KAIT 181115Z AUTO 16005KT 3SM -SN BKN011 BKN016 OVC027 M11/M14 A2995 RMK AO2
KAIT 181055Z AUTO 15004KT 10SM SCT026 BKN033 OVC049 M12/M16 A2995 RMK AO2
KAIT 181035Z AUTO 00000KT 10SM SCT046 OVC060 M12/M16 A2996 RMK AO2
KAIT 181015Z AUTO 12003KT 10SM BKN065 BKN070 M12/M16 A2998 RMK AO2
KAIT 180955Z AUTO 16003KT 10SM SCT075 M12/M16 A2999 RMK AO2
KAIT 180935Z AUTO 00000KT 10SM CLR M12/M16 A2999 RMK AO2
KAIT 180915Z AUTO 15003KT 10SM CLR M12/M16 A3000 RMK AO2
KAIT 180855Z AUTO 18005KT 10SM CLR M12/M16 A3001 RMK AO2
KAIT 180835Z AUTO 18003KT 10SM CLR M12/M17 A3001 RMK AO2
KAIT 180815Z AUTO 20004KT 10SM CLR M13/M17 A3002 RMK AO2
KAIT 180755Z AUTO 00000KT 10SM CLR M14/M17 A3001 RMK AO2
KAIT 180735Z AUTO 00000KT 10SM CLR M16/M18 A3000 RMK AO2
KAIT 180715Z AUTO 00000KT 10SM CLR M16/M18 A2998 RMK AO2
KAIT 180655Z AUTO 00000KT 10SM CLR M17/M19 A2999 RMK AO2
KAIT 180635Z AUTO 00000KT 10SM CLR M16/M18 A2997 RMK AO2
KAIT 180615Z AUTO 00000KT 10SM CLR M16/M18 A2998 RMK AO2
KAIT 180555Z AUTO 00000KT 10SM CLR M14/M17 A2999 RMK AO2
KAIT 180535Z AUTO 00000KT 10SM CLR M14/M18 A2999 RMK AO2
KAIT 180515Z AUTO 00000KT 10SM CLR M16/M18 A3000 RMK AO2
KAIT 180455Z AUTO 00000KT 10SM CLR M16/M18 A2999 RMK AO2
KAIT 180435Z AUTO 00000KT 10SM CLR M14/M18 A2999 RMK AO2
KAIT 180415Z AUTO 22003KT 10SM CLR M12/M17 A2999 RMK AO2
KAIT 180355Z AUTO 00000KT 10SM CLR M12/M17 A2998 RMK AO2
KAIT 180335Z AUTO 24003KT 10SM CLR M11/M17 A2997 RMK AO2
KAIT 180315Z AUTO 26003KT 10SM CLR M11/M16 A2997 RMK AO2
KAIT 180255Z AUTO 26003KT 10SM CLR M10/M16 A2997 RMK AO2
KAIT 180235Z AUTO 26004KT 10SM CLR M10/M17 A2996 RMK AO2
KAIT 180215Z AUTO 26004KT 10SM CLR M09/M17 A2996 RMK AO2
KAIT 180155Z AUTO 27005KT 10SM CLR M09/M16 A2996 RMK AO2
KAIT 180135Z AUTO 26004KT 10SM CLR M08/M16 A2994 RMK AO2
KAIT 180115Z AUTO 26005KT 10SM CLR M08/M16 A2994 RMK AO2
KAIT 180055Z AUTO 25004KT 10SM CLR M08/M16 A2993 RMK AO2
KAIT 180035Z AUTO 24005KT 10SM CLR M08/M15 A2993 RMK AO2
KAIT 180015Z AUTO 25005KT 10SM CLR M07/M15 A2992 RMK AO2
KAIT 172355Z AUTO 26005KT 10SM CLR M07/M16 A2991 RMK AO2
KAIT 172335Z AUTO 27006KT 10SM CLR M07/M16 A2990 RMK AO2
KAIT 172315Z AUTO 28006KT 10SM CLR M06/M16 A2989 RMK AO2
KAIT 172255Z AUTO 27008G17KT 10SM CLR M05/M14 A2988 RMK AO2
KAIT 172235Z AUTO 29006G15KT 10SM SCT041 M05/M12 A2987 RMK AO2
KAIT 172215Z AUTO 25011G16KT 10SM SCT041 M05/M12 A2987 RMK AO2
KAIT 172155Z AUTO 27009G14KT 10SM SCT039 M05/M12 A2986 RMK AO2
KAIT 172135Z AUTO 28009G18KT 10SM SCT041 SCT047 M04/M12 A2985 RMK AO2
KAIT 172115Z AUTO 28006G18KT 10SM BKN045 M04/M12 A2984 RMK AO2
KAIT 172055Z AUTO 29008G18KT 260V320 10SM BKN043 M04/M12 A2983 RMK AO2
KAIT 172035Z AUTO 28009G14KT 10SM SCT034 BKN043 BKN050 M03/M11 A2982 RMK AO2
KAIT 172015Z AUTO 29007G17KT 260V320 10SM SCT036 BKN046 M03/M11 A2981 RMK AO2
KAIT 171955Z AUTO 30011G17KT 10SM SCT041 SCT049 M03/M11 A2981 RMK AO2
KAIT 171935Z AUTO 30009G16KT 10SM SCT039 M02/M11 A2981 RMK AO2
KAIT 171915Z AUTO 26011G15KT 230V290 10SM BKN037 M02/M10 A2981 RMK AO2
KAIT 171855Z AUTO 24009G15KT 10SM SCT035 M02/M10 A2981 RMK AO2
KAIT 171835Z AUTO 25007KT 210V280 10SM SCT031 M03/M10 A2981 RMK AO2
KAIT 171815Z AUTO 26009G14KT 10SM SCT031 M03/M10 A2981 RMK AO2
KAIT 171755Z AUTO 25010KT 10SM CLR M03/M10 A2982 RMK AO2
KAIT 171735Z AUTO 26007KT 10SM CLR M04/M10 A2982 RMK AO2
KAIT 171715Z AUTO 23007KT 10SM CLR M04/M10 A2982 RMK AO2
KAIT 171655Z AUTO 24007KT 10SM CLR M05/M10 A2982 RMK AO2
KAIT 171635Z AUTO 23008KT 10SM CLR M05/M10 A2981 RMK AO2
KAIT 171615Z AUTO 25005KT 10SM CLR M06/M10 A2981 RMK AO2
KAIT 171555Z AUTO 24006KT 10SM CLR M06/M10 A2981 RMK AO2
KAIT 171535Z AUTO 22005KT 10SM CLR M07/M10 A2981 RMK AO2
KAIT 171515Z AUTO 23005KT 10SM CLR M07/M10 A2981 RMK AO2
KAIT 171455Z AUTO 23005KT 10SM CLR M08/M10 A2980 RMK AO2
KAIT 171435Z AUTO 21005KT 10SM CLR M08/M11 A2980 RMK AO2
KAIT 171415Z AUTO 20004KT 10SM CLR M09/M11 A2980 RMK AO2
KAIT 171355Z AUTO 00000KT 10SM CLR M10/M12 A2979 RMK AO2
KAIT 171335Z AUTO 00000KT 10SM CLR M11/M12 A2978 RMK AO2
KAIT 171315Z AUTO 00000KT 10SM CLR M11/M12 A2977 RMK AO2
KAIT 171255Z AUTO 00000KT 10SM CLR M11/M12 A2976 RMK AO2
KAIT 171235Z AUTO 19004KT 10SM CLR M09/M11 A2976 RMK AO2
KAIT 171215Z AUTO 20003KT 10SM CLR M10/M12 A2976 RMK AO2
KAIT 171155Z AUTO 00000KT 10SM CLR M10/M12 A2976 RMK AO2
KAIT 171135Z AUTO 00000KT 10SM CLR M10/M12 A2977 RMK AO2
KAIT 171115Z AUTO 20003KT 10SM CLR M09/M12 A2977 RMK AO2
KAIT 171055Z AUTO 21005KT 10SM CLR M09/M12 A2977 RMK AO2
KAIT 171035Z AUTO 20005KT 10SM CLR M09/M12 A2977 RMK AO2
KAIT 171015Z AUTO 20006KT 10SM CLR M09/M12 A2977 RMK AO2
KAIT 170955Z AUTO 20006KT 10SM CLR M09/M12 A2977 RMK AO2
KAIT 170935Z AUTO 19008KT 10SM CLR M09/M12 A2977 RMK AO2
KAIT 170915Z AUTO 19008KT 10SM CLR M09/M12 A2977 RMK AO2
KAIT 170855Z AUTO 20007KT 10SM CLR M09/M12 A2978 RMK AO2
KAIT 170835Z AUTO 19008KT 10SM SCT019 BKN029 M09/M12 A2979 RMK AO2
KAIT 170815Z AUTO 20007KT 10SM SCT030 M09/M13 A2980 RMK AO2
KAIT 170755Z AUTO 20006KT 10SM CLR M09/M13 A2981 RMK AO2